sensor_id;sensor_type;location;lat;lon;timestamp;temperature;humidity
21033;DHT22;10675;47.976;7.824;2022-09-13T00:00:20;15.70;99.90
21033;DHT22;10675;47.976;7.824;2022-09-13T00:02:45;15.70;99.90
21033;DHT22;10675;47.976;7.824;2022-09-13T00:05:11;15.60;99.90
21033;DHT22;10675;47.976;7.824;2022-09-13T00:07:36;15.60;99.90
21033;DHT22;10675;47.976;7.824;2022-09-13T00:10:03;15.60;99.90
21033;DHT22;10675;47.976;7.824;2022-09-13T00:12:28;15.60;99.90
21033;DHT22;10675;47.976;7.824;2022-09-13T00:14:54;15.60;99.90
21033;DHT22;10675;47.976;7.824;2022-09-13T00:17:20;15.60;99.90
21033;DHT22;10675;47.976;7.824;2022-09-13T00:19:46;15.50;99.90
21033;DHT22;10675;47.976;7.824;2022-09-13T00:22:11;15.50;99.90
21033;DHT22;10675;47.976;7.824;2022-09-13T00:24:37;15.50;99.90
21033;DHT22;10675;47.976;7.824;2022-09-13T00:27:02;15.50;99.90
21033;DHT22;10675;47.976;7.824;2022-09-13T00:29:28;15.40;99.90
21033;DHT22;10675;47.976;7.824;2022-09-13T00:31:54;15.30;99.90
21033;DHT22;10675;47.976;7.824;2022-09-13T00:34:19;15.30;99.90
21033;DHT22;10675;47.976;7.824;2022-09-13T00:36:45;15.20;99.90
21033;DHT22;10675;47.976;7.824;2022-09-13T00:39:11;15.20;99.90
21033;DHT22;10675;47.976;7.824;2022-09-13T00:41:37;15.30;99.90
21033;DHT22;10675;47.976;7.824;2022-09-13T00:44:03;15.30;99.90
21033;DHT22;10675;47.976;7.824;2022-09-13T00:46:44;15.30;99.90
21033;DHT22;10675;47.976;7.824;2022-09-13T00:51:41;15.40;99.90
21033;DHT22;10675;47.976;7.824;2022-09-13T00:54:07;15.40;99.90
21033;DHT22;10675;47.976;7.824;2022-09-13T00:56:45;15.40;99.90
21033;DHT22;10675;47.976;7.824;2022-09-13T00:59:16;15.30;99.90
21033;DHT22;10675;47.976;7.824;2022-09-13T01:01:48;15.30;99.90
21033;DHT22;10675;47.976;7.824;2022-09-13T01:04:18;15.30;99.90
21033;DHT22;10675;47.976;7.824;2022-09-13T01:06:44;15.20;99.90
21033;DHT22;10675;47.976;7.824;2022-09-13T01:09:11;15.20;99.90
21033;DHT22;10675;47.976;7.824;2022-09-13T01:11:45;15.20;99.90
21033;DHT22;10675;47.976;7.824;2022-09-13T01:14:16;15.10;99.90
21033;DHT22;10675;47.976;7.824;2022-09-13T01:16:42;15.10;99.90
21033;DHT22;10675;47.976;7.824;2022-09-13T01:19:08;15.10;99.90
21033;DHT22;10675;47.976;7.824;2022-09-13T01:27:44;15.00;99.90
21033;DHT22;10675;47.976;7.824;2022-09-13T01:30:23;15.00;99.90
21033;DHT22;10675;47.976;7.824;2022-09-13T01:44:16;15.00;99.90
21033;DHT22;10675;47.976;7.824;2022-09-13T01:46:57;15.00;99.90
21033;DHT22;10675;47.976;7.824;2022-09-13T01:49:32;15.10;99.90
21033;DHT22;10675;47.976;7.824;2022-09-13T01:52:10;15.10;99.90
21033;DHT22;10675;47.976;7.824;2022-09-13T01:55:03;15.10;99.90
21033;DHT22;10675;47.976;7.824;2022-09-13T02:00:10;15.00;99.90
21033;DHT22;10675;47.976;7.824;2022-09-13T02:02:38;15.00;99.90
21033;DHT22;10675;47.976;7.824;2022-09-13T02:05:23;14.90;99.90
21033;DHT22;10675;47.976;7.824;2022-09-13T02:07:56;14.80;99.90
21033;DHT22;10675;47.976;7.824;2022-09-13T02:10:32;14.70;99.90
21033;DHT22;10675;47.976;7.824;2022-09-13T02:12:58;14.70;99.90
21033;DHT22;10675;47.976;7.824;2022-09-13T02:15:33;14.70;99.90
21033;DHT22;10675;47.976;7.824;2022-09-13T02:18:08;14.70;99.90
21033;DHT22;10675;47.976;7.824;2022-09-13T02:20:37;14.60;99.90
21033;DHT22;10675;47.976;7.824;2022-09-13T02:23:09;14.60;99.90
21033;DHT22;10675;47.976;7.824;2022-09-13T02:25:37;14.60;99.90
21033;DHT22;10675;47.976;7.824;2022-09-13T02:28:09;14.70;99.90
21033;DHT22;10675;47.976;7.824;2022-09-13T02:30:39;14.70;99.90
21033;DHT22;10675;47.976;7.824;2022-09-13T02:33:16;14.70;99.90
21033;DHT22;10675;47.976;7.824;2022-09-13T02:36:00;14.70;99.90
21033;DHT22;10675;47.976;7.824;2022-09-13T02:38:34;14.70;99.90
21033;DHT22;10675;47.976;7.824;2022-09-13T02:43:46;14.70;99.90
21033;DHT22;10675;47.976;7.824;2022-09-13T02:49:16;14.70;99.90
21033;DHT22;10675;47.976;7.824;2022-09-13T02:57:47;14.70;99.90
21033;DHT22;10675;47.976;7.824;2022-09-13T03:00:15;14.60;99.90
21033;DHT22;10675;47.976;7.824;2022-09-13T03:02:41;14.50;99.90
21033;DHT22;10675;47.976;7.824;2022-09-13T03:05:08;14.50;99.90
21033;DHT22;10675;47.976;7.824;2022-09-13T03:07:34;14.40;99.90
21033;DHT22;10675;47.976;7.824;2022-09-13T03:10:06;14.40;99.90
21033;DHT22;10675;47.976;7.824;2022-09-13T03:12:54;14.50;99.90
21033;DHT22;10675;47.976;7.824;2022-09-13T03:32:03;14.20;99.90
21033;DHT22;10675;47.976;7.824;2022-09-13T03:34:41;14.00;99.90
21033;DHT22;10675;47.976;7.824;2022-09-13T03:37:32;14.10;99.90
21033;DHT22;10675;47.976;7.824;2022-09-13T03:40:09;14.00;99.90
21033;DHT22;10675;47.976;7.824;2022-09-13T03:42:46;14.00;99.90
21033;DHT22;10675;47.976;7.824;2022-09-13T03:45:14;14.10;99.90
21033;DHT22;10675;47.976;7.824;2022-09-13T03:47:42;14.10;99.90
21033;DHT22;10675;47.976;7.824;2022-09-13T03:50:10;14.20;99.90
21033;DHT22;10675;47.976;7.824;2022-09-13T03:52:38;14.20;99.90
21033;DHT22;10675;47.976;7.824;2022-09-13T03:55:04;14.20;99.90
21033;DHT22;10675;47.976;7.824;2022-09-13T03:57:30;14.20;99.90
21033;DHT22;10675;47.976;7.824;2022-09-13T03:59:56;14.20;99.90
21033;DHT22;10675;47.976;7.824;2022-09-13T04:02:24;14.20;99.90
21033;DHT22;10675;47.976;7.824;2022-09-13T04:04:50;14.20;99.90
21033;DHT22;10675;47.976;7.824;2022-09-13T04:07:20;14.20;99.90
21033;DHT22;10675;47.976;7.824;2022-09-13T04:09:46;14.20;99.90
21033;DHT22;10675;47.976;7.824;2022-09-13T04:12:13;14.20;99.90
21033;DHT22;10675;47.976;7.824;2022-09-13T04:14:39;14.20;99.90
21033;DHT22;10675;47.976;7.824;2022-09-13T04:17:05;14.20;99.90
21033;DHT22;10675;47.976;7.824;2022-09-13T04:19:31;14.20;99.90
21033;DHT22;10675;47.976;7.824;2022-09-13T04:21:57;14.20;99.90
21033;DHT22;10675;47.976;7.824;2022-09-13T04:24:25;14.20;99.90
21033;DHT22;10675;47.976;7.824;2022-09-13T04:26:51;14.20;99.90
21033;DHT22;10675;47.976;7.824;2022-09-13T04:29:18;14.20;99.90
21033;DHT22;10675;47.976;7.824;2022-09-13T04:31:44;14.20;99.90
21033;DHT22;10675;47.976;7.824;2022-09-13T04:34:10;14.20;99.90
21033;DHT22;10675;47.976;7.824;2022-09-13T04:36:35;14.20;99.90
21033;DHT22;10675;47.976;7.824;2022-09-13T04:39:02;14.20;99.90
21033;DHT22;10675;47.976;7.824;2022-09-13T04:41:28;14.20;99.90
21033;DHT22;10675;47.976;7.824;2022-09-13T04:43:53;14.20;99.90
21033;DHT22;10675;47.976;7.824;2022-09-13T04:46:19;14.10;99.90
21033;DHT22;10675;47.976;7.824;2022-09-13T04:48:49;14.10;99.90
21033;DHT22;10675;47.976;7.824;2022-09-13T04:51:15;14.00;99.90
21033;DHT22;10675;47.976;7.824;2022-09-13T04:53:42;13.90;99.90
21033;DHT22;10675;47.976;7.824;2022-09-13T04:56:08;13.80;99.90
21033;DHT22;10675;47.976;7.824;2022-09-13T04:58:35;13.80;99.90
21033;DHT22;10675;47.976;7.824;2022-09-13T05:01:02;13.80;99.90
21033;DHT22;10675;47.976;7.824;2022-09-13T05:03:31;13.70;99.90
21033;DHT22;10675;47.976;7.824;2022-09-13T05:06:05;13.70;99.90
21033;DHT22;10675;47.976;7.824;2022-09-13T05:08:31;13.70;99.90
21033;DHT22;10675;47.976;7.824;2022-09-13T05:10:56;13.80;99.90
21033;DHT22;10675;47.976;7.824;2022-09-13T05:13:23;13.80;99.90
21033;DHT22;10675;47.976;7.824;2022-09-13T05:15:49;13.90;99.90
21033;DHT22;10675;47.976;7.824;2022-09-13T05:18:14;14.00;99.90
21033;DHT22;10675;47.976;7.824;2022-09-13T05:20:40;13.90;99.90
21033;DHT22;10675;47.976;7.824;2022-09-13T05:23:05;13.90;99.90
21033;DHT22;10675;47.976;7.824;2022-09-13T05:25:31;13.90;99.90
21033;DHT22;10675;47.976;7.824;2022-09-13T05:27:57;14.00;99.90
21033;DHT22;10675;47.976;7.824;2022-09-13T05:30:22;14.00;99.90
21033;DHT22;10675;47.976;7.824;2022-09-13T05:32:48;14.00;99.90
21033;DHT22;10675;47.976;7.824;2022-09-13T05:35:13;14.00;99.90
21033;DHT22;10675;47.976;7.824;2022-09-13T05:37:39;14.00;99.90
21033;DHT22;10675;47.976;7.824;2022-09-13T05:40:05;14.00;99.90
21033;DHT22;10675;47.976;7.824;2022-09-13T05:42:31;14.10;99.90
21033;DHT22;10675;47.976;7.824;2022-09-13T05:44:56;14.10;99.90
21033;DHT22;10675;47.976;7.824;2022-09-13T05:47:22;14.20;99.90
21033;DHT22;10675;47.976;7.824;2022-09-13T05:49:48;14.20;99.90
21033;DHT22;10675;47.976;7.824;2022-09-13T05:52:13;14.30;99.90
21033;DHT22;10675;47.976;7.824;2022-09-13T05:54:39;14.30;99.90
21033;DHT22;10675;47.976;7.824;2022-09-13T05:57:04;14.40;99.90
21033;DHT22;10675;47.976;7.824;2022-09-13T05:59:30;14.60;99.90
21033;DHT22;10675;47.976;7.824;2022-09-13T06:01:56;14.70;99.90
21033;DHT22;10675;47.976;7.824;2022-09-13T06:04:22;14.70;99.90
21033;DHT22;10675;47.976;7.824;2022-09-13T06:06:48;14.70;99.90
21033;DHT22;10675;47.976;7.824;2022-09-13T06:09:13;14.60;99.90
21033;DHT22;10675;47.976;7.824;2022-09-13T06:11:39;14.50;99.90
21033;DHT22;10675;47.976;7.824;2022-09-13T06:14:04;14.60;99.90
21033;DHT22;10675;47.976;7.824;2022-09-13T06:16:30;14.80;99.90
21033;DHT22;10675;47.976;7.824;2022-09-13T06:18:57;14.90;99.90
21033;DHT22;10675;47.976;7.824;2022-09-13T06:21:23;15.10;99.90
21033;DHT22;10675;47.976;7.824;2022-09-13T06:23:50;15.20;99.90
21033;DHT22;10675;47.976;7.824;2022-09-13T06:26:21;15.30;99.90
21033;DHT22;10675;47.976;7.824;2022-09-13T06:28:48;15.50;99.90
21033;DHT22;10675;47.976;7.824;2022-09-13T06:31:15;15.60;99.90
21033;DHT22;10675;47.976;7.824;2022-09-13T06:33:42;15.90;99.90
21033;DHT22;10675;47.976;7.824;2022-09-13T06:36:11;16.10;99.90
21033;DHT22;10675;47.976;7.824;2022-09-13T06:38:39;16.30;99.90
21033;DHT22;10675;47.976;7.824;2022-09-13T06:41:07;16.40;99.90
21033;DHT22;10675;47.976;7.824;2022-09-13T06:43:33;16.40;99.90
21033;DHT22;10675;47.976;7.824;2022-09-13T06:46:04;16.60;99.90
21033;DHT22;10675;47.976;7.824;2022-09-13T06:48:31;16.80;99.90
21033;DHT22;10675;47.976;7.824;2022-09-13T06:50:58;17.00;99.90
21033;DHT22;10675;47.976;7.824;2022-09-13T06:53:24;17.30;99.90
21033;DHT22;10675;47.976;7.824;2022-09-13T06:56:20;17.40;99.90
21033;DHT22;10675;47.976;7.824;2022-09-13T06:58:47;17.50;99.90
21033;DHT22;10675;47.976;7.824;2022-09-13T07:01:27;17.80;99.90
21033;DHT22;10675;47.976;7.824;2022-09-13T07:03:59;17.90;99.90
21033;DHT22;10675;47.976;7.824;2022-09-13T07:06:27;18.10;99.90
21033;DHT22;10675;47.976;7.824;2022-09-13T07:08:54;18.30;99.90
21033;DHT22;10675;47.976;7.824;2022-09-13T07:11:22;18.50;99.90
21033;DHT22;10675;47.976;7.824;2022-09-13T07:13:52;18.60;99.90
21033;DHT22;10675;47.976;7.824;2022-09-13T07:16:20;18.60;99.90
21033;DHT22;10675;47.976;7.824;2022-09-13T07:21:18;18.60;99.90
21033;DHT22;10675;47.976;7.824;2022-09-13T07:23:44;18.60;99.90
21033;DHT22;10675;47.976;7.824;2022-09-13T07:26:09;18.50;99.90
21033;DHT22;10675;47.976;7.824;2022-09-13T07:28:37;18.70;99.90
21033;DHT22;10675;47.976;7.824;2022-09-13T07:33:40;18.90;99.90
21033;DHT22;10675;47.976;7.824;2022-09-13T07:36:07;18.90;99.90
21033;DHT22;10675;47.976;7.824;2022-09-13T07:38:37;19.00;99.90
21033;DHT22;10675;47.976;7.824;2022-09-13T07:41:04;19.30;99.90
21033;DHT22;10675;47.976;7.824;2022-09-13T07:43:32;19.30;99.90
21033;DHT22;10675;47.976;7.824;2022-09-13T07:46:03;19.40;99.90
21033;DHT22;10675;47.976;7.824;2022-09-13T07:48:31;19.30;99.90
21033;DHT22;10675;47.976;7.824;2022-09-13T07:51:18;19.40;99.90
21033;DHT22;10675;47.976;7.824;2022-09-13T07:53:48;19.50;99.90
21033;DHT22;10675;47.976;7.824;2022-09-13T07:56:16;19.70;99.90
21033;DHT22;10675;47.976;7.824;2022-09-13T07:58:44;19.60;99.90
21033;DHT22;10675;47.976;7.824;2022-09-13T08:01:21;19.60;99.90
21033;DHT22;10675;47.976;7.824;2022-09-13T08:03:58;19.80;99.90
21033;DHT22;10675;47.976;7.824;2022-09-13T08:06:26;20.00;99.90
21033;DHT22;10675;47.976;7.824;2022-09-13T08:08:52;20.00;99.90
21033;DHT22;10675;47.976;7.824;2022-09-13T08:11:31;20.10;99.90
21033;DHT22;10675;47.976;7.824;2022-09-13T08:13:57;20.40;99.90
21033;DHT22;10675;47.976;7.824;2022-09-13T08:16:24;20.70;99.90
21033;DHT22;10675;47.976;7.824;2022-09-13T08:18:52;20.90;99.90
21033;DHT22;10675;47.976;7.824;2022-09-13T08:21:18;21.10;99.90
21033;DHT22;10675;47.976;7.824;2022-09-13T08:23:45;21.30;99.90
21033;DHT22;10675;47.976;7.824;2022-09-13T08:26:11;21.40;99.90
21033;DHT22;10675;47.976;7.824;2022-09-13T08:28:38;21.50;99.90
21033;DHT22;10675;47.976;7.824;2022-09-13T08:31:12;21.60;99.90
21033;DHT22;10675;47.976;7.824;2022-09-13T08:33:42;21.80;99.90
21033;DHT22;10675;47.976;7.824;2022-09-13T08:36:08;21.90;99.90
21033;DHT22;10675;47.976;7.824;2022-09-13T08:38:34;21.80;99.90
21033;DHT22;10675;47.976;7.824;2022-09-13T08:41:02;21.80;99.80
21033;DHT22;10675;47.976;7.824;2022-09-13T08:46:14;22.30;99.20
21033;DHT22;10675;47.976;7.824;2022-09-13T08:48:43;22.30;98.60
21033;DHT22;10675;47.976;7.824;2022-09-13T08:51:49;22.40;98.20
21033;DHT22;10675;47.976;7.824;2022-09-13T08:54:17;22.50;98.40
21033;DHT22;10675;47.976;7.824;2022-09-13T08:57:07;22.50;98.60
21033;DHT22;10675;47.976;7.824;2022-09-13T09:02:46;22.80;98.30
21033;DHT22;10675;47.976;7.824;2022-09-13T09:05:24;22.70;98.20
21033;DHT22;10675;47.976;7.824;2022-09-13T09:12:57;23.10;97.70
21033;DHT22;10675;47.976;7.824;2022-09-13T09:15:30;23.30;97.90
21033;DHT22;10675;47.976;7.824;2022-09-13T09:18:13;23.30;97.00
21033;DHT22;10675;47.976;7.824;2022-09-13T09:20:50;23.00;98.10
21033;DHT22;10675;47.976;7.824;2022-09-13T09:23:26;22.90;98.20
21033;DHT22;10675;47.976;7.824;2022-09-13T09:28:40;23.20;98.50
21033;DHT22;10675;47.976;7.824;2022-09-13T09:31:11;23.20;98.80
21033;DHT22;10675;47.976;7.824;2022-09-13T09:34:00;23.20;98.60
21033;DHT22;10675;47.976;7.824;2022-09-13T09:36:49;23.30;98.30
21033;DHT22;10675;47.976;7.824;2022-09-13T09:39:17;23.50;98.20
21033;DHT22;10675;47.976;7.824;2022-09-13T09:41:43;23.30;97.40
21033;DHT22;10675;47.976;7.824;2022-09-13T09:44:17;23.40;98.30
21033;DHT22;10675;47.976;7.824;2022-09-13T09:49:34;23.50;97.20
21033;DHT22;10675;47.976;7.824;2022-09-13T09:52:23;23.50;97.60
21033;DHT22;10675;47.976;7.824;2022-09-13T09:54:58;23.60;97.10
21033;DHT22;10675;47.976;7.824;2022-09-13T09:57:55;23.60;97.00
21033;DHT22;10675;47.976;7.824;2022-09-13T10:00:24;23.80;96.30
21033;DHT22;10675;47.976;7.824;2022-09-13T10:02:56;24.10;95.70
21033;DHT22;10675;47.976;7.824;2022-09-13T10:05:22;24.00;95.80
21033;DHT22;10675;47.976;7.824;2022-09-13T10:08:04;24.30;95.80
21033;DHT22;10675;47.976;7.824;2022-09-13T10:10:42;24.40;95.30
21033;DHT22;10675;47.976;7.824;2022-09-13T10:13:17;24.80;95.10
21033;DHT22;10675;47.976;7.824;2022-09-13T10:18:25;25.10;93.10
21033;DHT22;10675;47.976;7.824;2022-09-13T10:23:44;25.10;92.90
21033;DHT22;10675;47.976;7.824;2022-09-13T10:26:11;25.10;93.50
21033;DHT22;10675;47.976;7.824;2022-09-13T10:31:14;25.30;93.80
21033;DHT22;10675;47.976;7.824;2022-09-13T10:33:46;25.70;92.70
21033;DHT22;10675;47.976;7.824;2022-09-13T10:36:23;25.90;92.70
21033;DHT22;10675;47.976;7.824;2022-09-13T10:38:59;26.20;93.20
21033;DHT22;10675;47.976;7.824;2022-09-13T10:41:27;26.30;91.50
21033;DHT22;10675;47.976;7.824;2022-09-13T10:44:01;26.30;92.30
21033;DHT22;10675;47.976;7.824;2022-09-13T10:46:32;26.40;91.50
21033;DHT22;10675;47.976;7.824;2022-09-13T10:48:59;26.20;91.40
21033;DHT22;10675;47.976;7.824;2022-09-13T10:54:16;26.70;88.60
21033;DHT22;10675;47.976;7.824;2022-09-13T10:56:43;26.80;87.90
21033;DHT22;10675;47.976;7.824;2022-09-13T10:59:26;27.00;87.70
21033;DHT22;10675;47.976;7.824;2022-09-13T11:02:23;27.30;82.50
21033;DHT22;10675;47.976;7.824;2022-09-13T11:13:29;27.90;70.80
21033;DHT22;10675;47.976;7.824;2022-09-13T11:16:23;28.00;70.80
21033;DHT22;10675;47.976;7.824;2022-09-13T11:35:36;28.90;69.40
21033;DHT22;10675;47.976;7.824;2022-09-13T11:40:58;28.80;67.50
21033;DHT22;10675;47.976;7.824;2022-09-13T11:51:56;28.80;63.80
21033;DHT22;10675;47.976;7.824;2022-09-13T11:57:18;28.50;64.00
21033;DHT22;10675;47.976;7.824;2022-09-13T11:59:48;28.50;66.80
21033;DHT22;10675;47.976;7.824;2022-09-13T12:02:23;28.40;66.90
21033;DHT22;10675;47.976;7.824;2022-09-13T12:05:19;28.40;66.40
21033;DHT22;10675;47.976;7.824;2022-09-13T12:08:00;28.40;64.80
21033;DHT22;10675;47.976;7.824;2022-09-13T12:10:42;28.40;65.20
21033;DHT22;10675;47.976;7.824;2022-09-13T12:13:19;28.50;64.90
21033;DHT22;10675;47.976;7.824;2022-09-13T12:15:50;28.40;64.80
21033;DHT22;10675;47.976;7.824;2022-09-13T12:18:29;28.40;64.40
21033;DHT22;10675;47.976;7.824;2022-09-13T12:21:06;28.20;64.60
21033;DHT22;10675;47.976;7.824;2022-09-13T12:23:45;28.30;65.70
21033;DHT22;10675;47.976;7.824;2022-09-13T12:26:21;28.20;65.10
21033;DHT22;10675;47.976;7.824;2022-09-13T12:31:21;28.00;64.70
21033;DHT22;10675;47.976;7.824;2022-09-13T12:33:47;28.20;65.30
21033;DHT22;10675;47.976;7.824;2022-09-13T12:36:34;28.20;65.30
21033;DHT22;10675;47.976;7.824;2022-09-13T12:39:30;28.10;64.90
21033;DHT22;10675;47.976;7.824;2022-09-13T12:50:06;28.60;63.90
21033;DHT22;10675;47.976;7.824;2022-09-13T12:53:04;28.50;63.00
21033;DHT22;10675;47.976;7.824;2022-09-13T12:55:58;28.40;64.80
21033;DHT22;10675;47.976;7.824;2022-09-13T12:59:08;28.40;65.00
21033;DHT22;10675;47.976;7.824;2022-09-13T13:01:44;28.60;65.10
21033;DHT22;10675;47.976;7.824;2022-09-13T13:04:13;28.60;66.10
21033;DHT22;10675;47.976;7.824;2022-09-13T13:07:01;28.50;66.80
21033;DHT22;10675;47.976;7.824;2022-09-13T13:09:37;28.50;66.90
21033;DHT22;10675;47.976;7.824;2022-09-13T13:12:08;28.80;66.20
21033;DHT22;10675;47.976;7.824;2022-09-13T13:19:59;30.00;64.10
21033;DHT22;10675;47.976;7.824;2022-09-13T13:25:35;30.40;63.70
21033;DHT22;10675;47.976;7.824;2022-09-13T13:42:30;29.50;61.20
21033;DHT22;10675;47.976;7.824;2022-09-13T13:45:12;29.40;61.70
21033;DHT22;10675;47.976;7.824;2022-09-13T13:47:40;29.40;63.30
21033;DHT22;10675;47.976;7.824;2022-09-13T13:50:14;29.40;62.40
21033;DHT22;10675;47.976;7.824;2022-09-13T13:53:13;29.30;61.50
21033;DHT22;10675;47.976;7.824;2022-09-13T13:55:48;29.10;61.40
21033;DHT22;10675;47.976;7.824;2022-09-13T14:01:32;28.70;62.70
21033;DHT22;10675;47.976;7.824;2022-09-13T14:12:17;28.20;64.70
21033;DHT22;10675;47.976;7.824;2022-09-13T14:21:22;28.00;66.00
21033;DHT22;10675;47.976;7.824;2022-09-13T14:23:49;28.00;66.10
21033;DHT22;10675;47.976;7.824;2022-09-13T14:26:15;27.70;66.20
21033;DHT22;10675;47.976;7.824;2022-09-13T14:28:41;27.90;66.80
21033;DHT22;10675;47.976;7.824;2022-09-13T14:31:07;27.90;67.40
21033;DHT22;10675;47.976;7.824;2022-09-13T14:33:39;27.70;67.00
21033;DHT22;10675;47.976;7.824;2022-09-13T14:36:21;27.80;66.90
21033;DHT22;10675;47.976;7.824;2022-09-13T14:38:53;27.80;67.00
21033;DHT22;10675;47.976;7.824;2022-09-13T14:41:28;27.80;66.60
21033;DHT22;10675;47.976;7.824;2022-09-13T14:44:14;27.70;66.90
21033;DHT22;10675;47.976;7.824;2022-09-13T14:46:42;27.60;67.60
21033;DHT22;10675;47.976;7.824;2022-09-13T14:49:18;27.60;66.30
21033;DHT22;10675;47.976;7.824;2022-09-13T14:51:54;27.60;68.10
21033;DHT22;10675;47.976;7.824;2022-09-13T14:56:55;27.50;69.40
21033;DHT22;10675;47.976;7.824;2022-09-13T14:59:34;27.50;68.90
21033;DHT22;10675;47.976;7.824;2022-09-13T15:02:25;27.40;69.50
21033;DHT22;10675;47.976;7.824;2022-09-13T15:04:54;27.30;70.50
21033;DHT22;10675;47.976;7.824;2022-09-13T15:07:34;27.30;71.10
21033;DHT22;10675;47.976;7.824;2022-09-13T15:10:20;27.20;71.30
21033;DHT22;10675;47.976;7.824;2022-09-13T15:13:01;27.20;71.40
21033;DHT22;10675;47.976;7.824;2022-09-13T15:18:22;27.10;71.10
21033;DHT22;10675;47.976;7.824;2022-09-13T15:23:33;26.80;78.70
21033;DHT22;10675;47.976;7.824;2022-09-13T15:26:26;26.80;77.90
21033;DHT22;10675;47.976;7.824;2022-09-13T15:28:56;26.70;80.80
21033;DHT22;10675;47.976;7.824;2022-09-13T15:31:25;26.70;81.90
21033;DHT22;10675;47.976;7.824;2022-09-13T15:36:43;26.50;84.10
21033;DHT22;10675;47.976;7.824;2022-09-13T15:39:15;26.40;87.70
21033;DHT22;10675;47.976;7.824;2022-09-13T15:42:02;26.30;88.60
21033;DHT22;10675;47.976;7.824;2022-09-13T15:44:28;26.30;88.50
21033;DHT22;10675;47.976;7.824;2022-09-13T15:46:59;26.40;88.70
21033;DHT22;10675;47.976;7.824;2022-09-13T15:49:30;26.40;88.50
21033;DHT22;10675;47.976;7.824;2022-09-13T15:51:58;26.40;91.10
21033;DHT22;10675;47.976;7.824;2022-09-13T15:54:36;26.70;89.50
21033;DHT22;10675;47.976;7.824;2022-09-13T15:57:07;26.80;87.30
21033;DHT22;10675;47.976;7.824;2022-09-13T15:59:33;26.80;86.70
21033;DHT22;10675;47.976;7.824;2022-09-13T16:01:59;26.80;86.90
21033;DHT22;10675;47.976;7.824;2022-09-13T16:04:25;26.70;88.50
21033;DHT22;10675;47.976;7.824;2022-09-13T16:06:51;26.60;89.40
21033;DHT22;10675;47.976;7.824;2022-09-13T16:09:20;26.50;88.60
21033;DHT22;10675;47.976;7.824;2022-09-13T16:11:47;26.40;88.90
21033;DHT22;10675;47.976;7.824;2022-09-13T16:14:13;26.40;89.60
21033;DHT22;10675;47.976;7.824;2022-09-13T16:16:39;26.30;88.50
21033;DHT22;10675;47.976;7.824;2022-09-13T16:19:05;26.20;87.90
21033;DHT22;10675;47.976;7.824;2022-09-13T16:21:31;26.10;90.20
21033;DHT22;10675;47.976;7.824;2022-09-13T16:23:56;26.00;91.70
21033;DHT22;10675;47.976;7.824;2022-09-13T16:26:22;25.90;94.20
21033;DHT22;10675;47.976;7.824;2022-09-13T16:28:47;25.70;94.70
21033;DHT22;10675;47.976;7.824;2022-09-13T16:31:14;25.60;95.00
21033;DHT22;10675;47.976;7.824;2022-09-13T16:33:41;25.60;95.90
21033;DHT22;10675;47.976;7.824;2022-09-13T16:36:09;25.60;95.20
21033;DHT22;10675;47.976;7.824;2022-09-13T16:38:35;25.50;94.80
21033;DHT22;10675;47.976;7.824;2022-09-13T16:41:04;25.40;95.80
21033;DHT22;10675;47.976;7.824;2022-09-13T16:43:29;25.40;94.80
21033;DHT22;10675;47.976;7.824;2022-09-13T16:45:55;25.30;95.80
21033;DHT22;10675;47.976;7.824;2022-09-13T16:48:20;25.20;98.30
21033;DHT22;10675;47.976;7.824;2022-09-13T16:50:46;25.00;95.30
21033;DHT22;10675;47.976;7.824;2022-09-13T16:53:11;25.00;95.50
21033;DHT22;10675;47.976;7.824;2022-09-13T16:55:37;25.10;97.00
21033;DHT22;10675;47.976;7.824;2022-09-13T16:58:02;24.90;99.90
21033;DHT22;10675;47.976;7.824;2022-09-13T17:00:28;24.70;97.30
21033;DHT22;10675;47.976;7.824;2022-09-13T17:02:55;24.60;98.70
21033;DHT22;10675;47.976;7.824;2022-09-13T17:05:21;24.60;99.80
21033;DHT22;10675;47.976;7.824;2022-09-13T17:07:47;24.60;99.30
21033;DHT22;10675;47.976;7.824;2022-09-13T17:10:12;24.60;98.50
21033;DHT22;10675;47.976;7.824;2022-09-13T17:12:39;24.60;97.90
21033;DHT22;10675;47.976;7.824;2022-09-13T17:15:05;24.50;98.00
21033;DHT22;10675;47.976;7.824;2022-09-13T17:17:31;24.60;99.50
21033;DHT22;10675;47.976;7.824;2022-09-13T17:20:03;24.50;99.90
21033;DHT22;10675;47.976;7.824;2022-09-13T17:22:30;24.50;99.90
21033;DHT22;10675;47.976;7.824;2022-09-13T17:24:56;24.40;99.90
21033;DHT22;10675;47.976;7.824;2022-09-13T17:27:21;24.40;99.90
21033;DHT22;10675;47.976;7.824;2022-09-13T17:29:47;24.30;99.90
21033;DHT22;10675;47.976;7.824;2022-09-13T17:32:12;24.30;99.90
21033;DHT22;10675;47.976;7.824;2022-09-13T17:34:38;24.30;99.90
21033;DHT22;10675;47.976;7.824;2022-09-13T17:37:03;24.20;99.90
21033;DHT22;10675;47.976;7.824;2022-09-13T17:39:31;24.10;99.90
21033;DHT22;10675;47.976;7.824;2022-09-13T17:41:56;24.10;99.90
21033;DHT22;10675;47.976;7.824;2022-09-13T17:44:23;24.10;99.90
21033;DHT22;10675;47.976;7.824;2022-09-13T17:46:48;24.10;99.90
21033;DHT22;10675;47.976;7.824;2022-09-13T17:49:14;24.10;99.90
21033;DHT22;10675;47.976;7.824;2022-09-13T17:51:39;24.00;99.90
21033;DHT22;10675;47.976;7.824;2022-09-13T17:54:06;23.80;99.90
21033;DHT22;10675;47.976;7.824;2022-09-13T17:56:36;23.80;99.90
21033;DHT22;10675;47.976;7.824;2022-09-13T18:01:29;23.80;99.90
21033;DHT22;10675;47.976;7.824;2022-09-13T18:03:55;23.80;99.90
21033;DHT22;10675;47.976;7.824;2022-09-13T18:06:20;23.80;99.90
21033;DHT22;10675;47.976;7.824;2022-09-13T18:08:46;23.80;99.90
21033;DHT22;10675;47.976;7.824;2022-09-13T18:11:14;23.80;99.90
21033;DHT22;10675;47.976;7.824;2022-09-13T18:13:43;23.70;99.90
21033;DHT22;10675;47.976;7.824;2022-09-13T18:16:12;23.60;99.90
21033;DHT22;10675;47.976;7.824;2022-09-13T18:18:38;23.60;99.90
21033;DHT22;10675;47.976;7.824;2022-09-13T18:21:04;23.50;99.90
21033;DHT22;10675;47.976;7.824;2022-09-13T18:23:31;23.40;99.90
21033;DHT22;10675;47.976;7.824;2022-09-13T18:25:58;23.40;99.90
21033;DHT22;10675;47.976;7.824;2022-09-13T18:28:24;23.30;99.90
21033;DHT22;10675;47.976;7.824;2022-09-13T18:30:54;23.30;99.90
21033;DHT22;10675;47.976;7.824;2022-09-13T18:33:20;23.20;99.90
21033;DHT22;10675;47.976;7.824;2022-09-13T18:38:25;23.20;99.90
21033;DHT22;10675;47.976;7.824;2022-09-13T18:41:13;23.10;99.90
21033;DHT22;10675;47.976;7.824;2022-09-13T18:43:41;23.00;99.90
21033;DHT22;10675;47.976;7.824;2022-09-13T18:46:12;23.00;99.90
21033;DHT22;10675;47.976;7.824;2022-09-13T18:48:43;23.00;99.90
21033;DHT22;10675;47.976;7.824;2022-09-13T18:51:11;22.90;99.90
21033;DHT22;10675;47.976;7.824;2022-09-13T18:53:37;22.90;99.90
21033;DHT22;10675;47.976;7.824;2022-09-13T18:56:05;22.80;99.90
21033;DHT22;10675;47.976;7.824;2022-09-13T18:58:34;22.80;99.90
21033;DHT22;10675;47.976;7.824;2022-09-13T19:03:37;22.70;99.90